createdAt,value
2023-02-01T00:02:48.709Z,82.78
2023-02-01T00:05:54.516Z,82.96
2023-02-01T00:09:03.981Z,82.90
2023-02-01T00:12:11.201Z,84.28
2023-02-01T00:15:17.452Z,84.58
2023-02-01T00:18:16.682Z,83.73
2023-02-01T00:21:23.353Z,83.19
2023-02-01T00:24:29.574Z,83.15
2023-02-01T00:27:36.463Z,83.51
2023-02-01T00:30:34.548Z,83.32
2023-02-01T00:33:39.794Z,83.09
2023-02-01T00:36:45.951Z,83.14
2023-02-01T00:39:53.162Z,83.00
2023-02-01T00:42:59.040Z,83.07
2023-02-01T00:46:04.721Z,84.21
2023-02-01T00:49:10.716Z,83.38
2023-02-01T00:52:15.765Z,83.37
2023-02-01T00:55:21.373Z,83.39
2023-02-01T00:58:27.589Z,83.17
2023-02-01T01:01:36.686Z,83.24
2023-02-01T01:04:43.320Z,84.39
2023-02-01T01:07:50.168Z,83.58
2023-02-01T01:10:57.250Z,83.26
2023-02-01T01:14:04.810Z,83.52
2023-02-01T01:17:10.533Z,84.10
2023-02-01T01:20:16.800Z,84.38
2023-02-01T01:23:23.741Z,85.58
2023-02-01T01:26:35.684Z,85.46
2023-02-01T01:29:41.706Z,84.51
2023-02-01T01:32:48.004Z,85.51
2023-02-01T01:35:53.899Z,85.65
2023-02-01T01:39:00.594Z,85.02
2023-02-01T01:42:07.437Z,85.32
2023-02-01T01:45:23.026Z,85.34
2023-02-01T01:48:33.210Z,85.16
2023-02-01T01:51:38.375Z,85.18
2023-02-01T01:54:47.746Z,85.21
2023-02-01T01:57:51.043Z,85.24
2023-02-01T02:00:43.665Z,84.84
2023-02-01T02:03:52.691Z,85.17
2023-02-01T02:07:20.452Z,85.29
2023-02-01T02:10:28.154Z,85.83
2023-02-01T02:13:33.833Z,85.61
2023-02-01T02:17:04.147Z,86.26
2023-02-01T02:20:27.790Z,85.01
2023-02-01T02:24:00.392Z,84.28
2023-02-01T02:27:17.483Z,85.57
2023-02-01T02:30:46.328Z,84.84
2023-02-01T02:34:18.742Z,84.36
2023-02-01T02:37:41.530Z,85.48
2023-02-01T02:41:09.288Z,85.94
2023-02-01T02:44:32.300Z,84.60
2023-02-01T02:48:03.403Z,84.33
2023-02-01T02:51:47.634Z,84.28
2023-02-01T02:54:58.205Z,84.33
2023-02-01T02:58:22.781Z,84.16
2023-02-01T03:01:46.646Z,84.01
2023-02-01T03:04:52.542Z,83.56
2023-02-01T03:08:33.308Z,83.42
2023-02-01T03:11:41.709Z,83.17
2023-02-01T03:14:47.456Z,83.12
2023-02-01T03:17:55.237Z,84.43
2023-02-01T03:21:02.831Z,83.70
2023-02-01T03:24:09.402Z,83.21
2023-02-01T03:27:22.456Z,83.28
2023-02-01T03:30:48.153Z,83.88
2023-02-01T03:33:53.546Z,84.55
2023-02-01T03:37:07.209Z,84.00
2023-02-01T03:40:20.687Z,84.15
2023-02-01T03:43:21.786Z,83.26
2023-02-01T03:46:29.435Z,83.34
2023-02-01T03:49:53.446Z,83.61
2023-02-01T03:53:06.130Z,83.66
2023-02-01T03:56:11.435Z,82.98
2023-02-01T03:59:17.225Z,82.94
2023-02-01T04:02:24.127Z,83.25
2023-02-01T04:05:28.971Z,83.07
2023-02-01T04:08:36.273Z,82.75
2023-02-01T04:11:41.870Z,82.76
2023-02-01T04:14:47.794Z,83.24
2023-02-01T04:17:53.373Z,82.81
2023-02-01T04:20:59.018Z,82.56
2023-02-01T04:24:05.818Z,82.91
2023-02-01T04:27:12.698Z,82.97
2023-02-01T04:30:21.046Z,83.50
2023-02-01T04:33:26.765Z,83.60
2023-02-01T04:36:32.408Z,83.67
2023-02-01T04:39:32.451Z,83.81
2023-02-01T04:42:37.892Z,84.50
2023-02-01T04:45:42.400Z,84.93
2023-02-01T04:48:49.447Z,84.74
2023-02-01T04:51:55.315Z,85.15
2023-02-01T04:55:02.020Z,84.75
2023-02-01T04:58:08.606Z,84.50
2023-02-01T05:01:13.376Z,85.49
2023-02-01T05:04:19.196Z,85.92
2023-02-01T05:07:25.715Z,85.83
2023-02-01T05:10:30.659Z,85.74
2023-02-01T05:13:55.102Z,85.04
2023-02-01T05:17:00.271Z,85.79
2023-02-01T05:20:06.824Z,85.51
2023-02-01T05:23:13.729Z,86.36
2023-02-01T05:26:19.894Z,86.92
2023-02-01T05:29:26.881Z,87.15
2023-02-01T05:32:33.128Z,86.02
2023-02-01T05:35:39.957Z,85.82
2023-02-01T05:38:46.216Z,86.74
2023-02-01T05:41:51.154Z,86.75
2023-02-01T05:44:56.903Z,87.09
2023-02-01T05:48:02.421Z,86.54
2023-02-01T05:51:08.753Z,86.26
2023-02-01T05:54:14.521Z,86.03
2023-02-01T05:57:21.750Z,85.73
2023-02-01T06:00:28.915Z,85.36
2023-02-01T06:03:34.712Z,84.84
2023-02-01T06:06:40.408Z,84.64
2023-02-01T06:09:46.626Z,84.65
2023-02-01T06:12:54.184Z,84.47
2023-02-01T06:15:59.874Z,84.33
2023-02-01T06:19:06.201Z,84.11
2023-02-01T06:22:14.334Z,84.10
2023-02-01T06:25:21.563Z,84.37
2023-02-01T06:28:28.006Z,84.14
2023-02-01T06:31:33.446Z,84.20
2023-02-01T06:34:38.389Z,83.77
2023-02-01T06:37:43.824Z,83.25
2023-02-01T06:40:50.232Z,82.93
2023-02-01T06:43:56.886Z,82.82
2023-02-01T06:47:02.990Z,82.77
2023-02-01T06:50:08.470Z,82.21
2023-02-01T06:53:14.708Z,82.42
2023-02-01T06:56:26.438Z,82.35
2023-02-01T06:59:31.981Z,81.96
2023-02-01T07:02:36.813Z,82.47
2023-02-01T07:05:43.296Z,82.40
2023-02-01T07:08:51.738Z,82.07
2023-02-01T07:11:58.381Z,81.28
2023-02-01T07:15:05.095Z,80.80
2023-02-01T07:18:11.639Z,79.89
2023-02-01T07:21:17.695Z,76.45
2023-02-01T07:24:22.787Z,75.65
2023-02-01T07:27:29.245Z,75.46
2023-02-01T07:30:36.359Z,74.60
2023-02-01T07:33:42.527Z,75.34
2023-02-01T07:36:49.832Z,74.77
2023-02-01T07:40:00.117Z,75.54
2023-02-01T07:43:06.978Z,76.17
2023-02-01T07:46:12.822Z,76.34
2023-02-01T07:49:20.614Z,75.96
2023-02-01T07:52:25.668Z,76.14
2023-02-01T07:55:33.149Z,76.00
2023-02-01T07:58:40.086Z,75.40
2023-02-01T08:01:45.794Z,75.29
2023-02-01T08:04:50.587Z,75.75
2023-02-01T08:07:56.045Z,75.66
2023-02-01T08:11:03.223Z,75.52
2023-02-01T08:14:08.730Z,75.62
2023-02-01T08:17:14.076Z,75.20
2023-02-01T08:20:19.600Z,75.46
2023-02-01T08:23:25.291Z,75.52
2023-02-01T08:26:36.141Z,75.56
2023-02-01T08:29:41.456Z,75.03
2023-02-01T08:32:46.884Z,74.41
2023-02-01T08:35:53.217Z,74.02
2023-02-01T08:38:59.729Z,74.20
2023-02-01T08:42:23.136Z,73.94
2023-02-01T08:45:52.193Z,73.43
2023-02-01T08:48:58.707Z,72.73
2023-02-01T08:52:10.638Z,72.48
2023-02-01T08:55:13.440Z,72.79
2023-02-01T08:58:22.130Z,72.52
2023-02-01T09:01:30.146Z,71.87
2023-02-01T09:04:35.686Z,71.38
2023-02-01T09:07:40.872Z,70.92
2023-02-01T09:10:46.902Z,69.90
2023-02-01T09:13:52.912Z,69.88
2023-02-01T09:16:59.684Z,69.95
2023-02-01T09:20:05.628Z,70.40
2023-02-01T09:23:13.973Z,69.73
2023-02-01T09:26:22.944Z,68.75
2023-02-01T09:29:30.684Z,68.17
2023-02-01T09:32:38.110Z,68.69
2023-02-01T09:35:46.402Z,68.55
2023-02-01T09:38:53.157Z,68.70
2023-02-01T09:42:24.895Z,67.68
2023-02-01T09:45:49.900Z,68.39
2023-02-01T09:48:55.710Z,68.86
2023-02-01T09:52:03.949Z,68.81
2023-02-01T09:55:15.996Z,69.41
2023-02-01T09:58:47.606Z,69.57
2023-02-01T10:01:52.995Z,69.47
2023-02-01T10:04:59.445Z,69.58
2023-02-01T10:08:18.304Z,68.88
2023-02-01T10:11:52.390Z,69.32
2023-02-01T10:15:32.669Z,69.04
2023-02-01T10:19:02.272Z,68.91
2023-02-01T10:22:41.042Z,69.10
2023-02-01T10:25:57.540Z,69.07
2023-02-01T10:28:50.996Z,69.13
2023-02-01T10:31:57.346Z,69.75
2023-02-01T10:35:14.587Z,70.43
2023-02-01T10:38:22.920Z,71.14
2023-02-01T10:41:37.355Z,71.86
2023-02-01T10:44:43.607Z,73.46
2023-02-01T10:47:49.311Z,73.50
2023-02-01T10:51:03.993Z,72.26
2023-02-01T10:53:59.755Z,72.08
2023-02-01T10:57:05.053Z,71.76
2023-02-01T11:00:11.998Z,73.61
2023-02-01T11:03:17.457Z,74.26
2023-02-01T11:06:30.476Z,74.58
2023-02-01T11:09:39.541Z,74.47
2023-02-01T11:12:49.729Z,74.05
2023-02-01T11:15:55.449Z,73.46
2023-02-01T11:19:00.670Z,72.93
2023-02-01T11:22:11.233Z,73.17
2023-02-01T11:25:17.679Z,73.74
2023-02-01T11:28:23.802Z,74.29
2023-02-01T11:31:29.655Z,74.05
2023-02-01T11:34:37.415Z,73.92
2023-02-01T11:37:55.314Z,74.40
2023-02-01T11:41:00.986Z,74.46
2023-02-01T11:44:15.709Z,74.66
2023-02-01T11:47:42.314Z,74.81
2023-02-01T11:51:07.343Z,74.65
2023-02-01T11:54:46.879Z,74.64
2023-02-01T11:58:21.969Z,74.27
2023-02-01T12:01:49.310Z,73.97
2023-02-01T12:05:13.485Z,74.33
2023-02-01T12:08:35.982Z,74.39
2023-02-01T12:11:54.791Z,74.42
2023-02-01T12:15:25.542Z,74.41
2023-02-01T12:18:41.903Z,74.34
2023-02-01T12:22:01.416Z,74.64
2023-02-01T12:25:24.193Z,75.02
2023-02-01T12:29:22.499Z,75.32
2023-02-01T12:32:55.953Z,75.37
2023-02-01T12:36:25.071Z,74.89
2023-02-01T12:39:46.234Z,75.21
2023-02-01T12:43:25.565Z,75.41
2023-02-01T12:46:57.912Z,75.45
2023-02-01T12:50:12.154Z,75.62
2023-02-01T12:53:32.038Z,75.51
2023-02-01T12:56:54.038Z,75.53
2023-02-01T13:00:19.323Z,75.59
2023-02-01T13:04:08.374Z,75.84
2023-02-01T13:07:24.060Z,75.34
2023-02-01T13:10:51.394Z,75.92
2023-02-01T13:14:34.689Z,75.74
2023-02-01T13:17:43.172Z,75.45
2023-02-01T13:20:55.441Z,75.84
2023-02-01T13:24:03.458Z,75.89
2023-02-01T13:27:10.182Z,75.47
2023-02-01T13:30:25.896Z,76.52
2023-02-01T13:33:56.733Z,77.28
2023-02-01T13:37:35.201Z,77.94
2023-02-01T13:41:10.612Z,77.65
2023-02-01T13:44:23.001Z,77.07
2023-02-01T13:47:42.364Z,77.16
2023-02-01T13:50:52.820Z,78.23
2023-02-01T13:54:03.401Z,78.83
2023-02-01T13:57:09.323Z,78.79
2023-02-01T14:00:45.633Z,78.79
2023-02-01T14:04:02.635Z,78.99
2023-02-01T14:07:09.796Z,79.00
2023-02-01T14:10:52.896Z,79.20
2023-02-01T14:13:59.248Z,79.36
2023-02-01T14:17:18.837Z,79.63
2023-02-01T14:21:00.452Z,79.09
2023-02-01T14:24:14.890Z,79.41
2023-02-01T14:27:35.894Z,79.41
2023-02-01T14:30:41.634Z,79.50
2023-02-01T14:33:47.863Z,80.55
2023-02-01T14:37:00.383Z,81.00
2023-02-01T14:40:18.775Z,80.62
2023-02-01T14:43:32.617Z,80.77
2023-02-01T14:46:31.798Z,80.84
2023-02-01T14:49:37.416Z,81.38
2023-02-01T14:53:27.582Z,81.97
2023-02-01T14:56:33.607Z,82.63
2023-02-01T14:59:41.699Z,83.32
2023-02-01T15:02:47.750Z,83.60
2023-02-01T15:05:55.318Z,83.80
2023-02-01T15:09:02.447Z,84.06
2023-02-01T15:12:22.288Z,84.08
2023-02-01T15:15:39.610Z,84.01
2023-02-01T15:18:44.931Z,83.55
2023-02-01T15:21:59.193Z,83.15
2023-02-01T15:25:10.422Z,83.33
2023-02-01T15:28:16.099Z,83.35
2023-02-01T15:31:23.171Z,83.48
2023-02-01T15:34:28.658Z,83.70
2023-02-01T15:37:36.217Z,83.22
2023-02-01T15:40:42.198Z,83.24
2023-02-01T15:44:02.341Z,83.42
2023-02-01T15:47:08.460Z,84.05
2023-02-01T15:50:16.005Z,82.39
2023-02-01T15:53:18.517Z,83.42
2023-02-01T15:56:23.488Z,83.21
2023-02-01T15:59:32.558Z,82.93
2023-02-01T16:02:52.506Z,83.01
2023-02-01T16:05:58.630Z,82.89
2023-02-01T16:09:26.048Z,82.92
2023-02-01T16:12:44.186Z,83.78
2023-02-01T16:15:51.463Z,83.98
2023-02-01T16:18:57.547Z,84.25
2023-02-01T16:22:03.392Z,84.17
2023-02-01T16:25:02.699Z,84.02
2023-02-01T16:27:49.020Z,83.82
2023-02-01T16:30:41.906Z,83.92
2023-02-01T16:33:35.672Z,84.12
2023-02-01T16:36:41.750Z,84.74
2023-02-01T16:39:48.786Z,84.78
2023-02-01T16:42:55.825Z,84.07
2023-02-01T16:46:03.830Z,84.93
2023-02-01T16:49:12.204Z,85.40
2023-02-01T16:52:17.143Z,85.79
2023-02-01T16:55:31.839Z,85.53
2023-02-01T16:58:38.467Z,85.54
2023-02-01T17:01:49.772Z,85.82
2023-02-01T17:04:56.802Z,86.10
2023-02-01T17:08:03.412Z,86.27
2023-02-01T17:11:09.018Z,86.30
2023-02-01T17:14:33.653Z,86.64
2023-02-01T17:17:40.241Z,86.48
2023-02-01T17:20:47.935Z,86.50
2023-02-01T17:23:54.257Z,86.25
2023-02-01T17:27:00.449Z,86.12
2023-02-01T17:30:07.240Z,86.20
2023-02-01T17:33:21.821Z,86.22
2023-02-01T17:36:20.682Z,85.76
2023-02-01T17:39:43.029Z,85.39
2023-02-01T17:42:48.924Z,85.59
2023-02-01T17:46:09.888Z,85.66
2023-02-01T17:49:15.184Z,86.43
2023-02-01T17:52:23.594Z,86.32
2023-02-01T17:55:36.839Z,86.61
2023-02-01T17:58:42.623Z,86.34
2023-02-01T18:01:48.835Z,86.98
2023-02-01T18:04:47.364Z,87.54
2023-02-01T18:07:53.880Z,87.39
2023-02-01T18:11:01.422Z,87.29
2023-02-01T18:14:08.137Z,87.44
2023-02-01T18:17:14.159Z,87.58
2023-02-01T18:20:22.841Z,87.71
2023-02-01T18:23:34.118Z,87.68
2023-02-01T18:26:39.824Z,87.64
2023-02-01T18:29:46.073Z,87.60
2023-02-01T18:32:52.528Z,87.57
2023-02-01T18:35:52.294Z,87.72
2023-02-01T18:38:58.061Z,87.07
2023-02-01T18:42:04.341Z,87.21
2023-02-01T18:45:10.277Z,87.21
2023-02-01T18:48:19.791Z,87.30
2023-02-01T18:51:27.831Z,87.70
2023-02-01T18:54:32.882Z,87.50
2023-02-01T18:57:40.582Z,87.51
2023-02-01T19:00:46.130Z,87.69
2023-02-01T19:03:55.494Z,87.78
2023-02-01T19:07:01.461Z,88.05
2023-02-01T19:10:08.344Z,87.84
2023-02-01T19:13:14.895Z,87.82
2023-02-01T19:16:26.166Z,87.96
2023-02-01T19:19:31.810Z,87.50
2023-02-01T19:22:37.893Z,87.98
2023-02-01T19:25:37.228Z,88.50
2023-02-01T19:28:44.334Z,88.54
2023-02-01T19:31:51.188Z,87.86
2023-02-01T19:34:57.763Z,88.29
2023-02-01T19:38:04.549Z,87.81
2023-02-01T19:41:13.583Z,87.11
2023-02-01T19:44:12.674Z,87.29
2023-02-01T19:47:20.263Z,87.64
2023-02-01T19:50:31.826Z,87.49
2023-02-01T19:53:38.168Z,88.02
2023-02-01T19:56:44.150Z,87.99
2023-02-01T19:59:51.086Z,88.33
2023-02-01T20:02:56.138Z,88.37
2023-02-01T20:06:07.565Z,88.96
2023-02-01T20:09:12.938Z,89.36
2023-02-01T20:12:19.085Z,89.37
2023-02-01T20:15:25.801Z,89.56
2023-02-01T20:18:31.802Z,89.68
2023-02-01T20:21:37.627Z,89.28
2023-02-01T20:24:42.961Z,88.93
2023-02-01T20:27:49.961Z,87.74
2023-02-01T20:31:01.097Z,88.64
2023-02-01T20:34:07.222Z,89.94
2023-02-01T20:37:13.808Z,90.71
2023-02-01T20:40:20.766Z,90.58
2023-02-01T20:43:26.143Z,90.65
2023-02-01T20:46:32.473Z,90.73
2023-02-01T20:49:39.038Z,90.97
2023-02-01T20:52:44.838Z,90.83
2023-02-01T20:55:49.939Z,90.73
2023-02-01T20:58:55.759Z,90.99
2023-02-01T21:02:02.209Z,91.22
2023-02-01T21:05:07.941Z,91.03
2023-02-01T21:08:13.390Z,91.19
2023-02-01T21:11:25.790Z,91.29
2023-02-01T21:14:30.751Z,91.36
2023-02-01T21:17:35.849Z,91.68
2023-02-01T21:20:43.309Z,91.86
2023-02-01T21:23:56.476Z,92.12
2023-02-01T21:27:02.821Z,92.39
2023-02-01T21:30:08.803Z,92.49
2023-02-01T21:33:15.325Z,92.34
2023-02-01T21:36:23.414Z,92.43
2023-02-01T21:39:29.436Z,92.48
2023-02-01T21:42:35.937Z,92.40
2023-02-01T21:45:46.122Z,92.75
2023-02-01T21:49:04.418Z,92.52
2023-02-01T21:51:56.773Z,92.23
2023-02-01T21:55:06.350Z,92.39
2023-02-01T21:58:13.697Z,92.83
2023-02-01T22:01:18.922Z,93.01
2023-02-01T22:04:25.502Z,93.06
2023-02-01T22:07:33.009Z,93.17
2023-02-01T22:10:38.212Z,93.26
2023-02-01T22:13:43.989Z,92.70
2023-02-01T22:16:49.507Z,92.18
2023-02-01T22:19:54.753Z,91.71
2023-02-01T22:23:03.319Z,91.09
2023-02-01T22:26:18.063Z,90.64
2023-02-01T22:29:24.813Z,90.52
2023-02-01T22:32:32.321Z,89.92
2023-02-01T22:35:37.099Z,89.62
2023-02-01T22:38:44.312Z,89.49
2023-02-01T22:41:50.012Z,89.15
2023-02-01T22:44:55.742Z,88.23
2023-02-01T22:48:03.554Z,88.92
2023-02-01T22:51:14.104Z,88.85
2023-02-01T22:54:20.348Z,89.27
2023-02-01T22:57:25.835Z,89.11
2023-02-01T23:00:31.840Z,88.92
2023-02-01T23:03:38.710Z,89.19
2023-02-01T23:06:51.277Z,88.96
2023-02-01T23:09:58.143Z,88.77
2023-02-01T23:13:03.606Z,88.52
2023-02-01T23:16:09.535Z,89.00
2023-02-01T23:19:14.849Z,88.07
2023-02-01T23:22:20.730Z,87.52
2023-02-01T23:25:27.951Z,87.33
2023-02-01T23:28:33.720Z,87.06
2023-02-01T23:31:44.162Z,87.02
2023-02-01T23:34:49.673Z,87.35
2023-02-01T23:37:56.242Z,87.74
2023-02-01T23:41:02.017Z,87.60
2023-02-01T23:44:08.585Z,87.76
2023-02-01T23:47:08.169Z,87.69
2023-02-01T23:50:13.501Z,87.86
2023-02-01T23:53:19.458Z,88.11
2023-02-01T23:56:43.514Z,88.35
2023-02-01T23:59:50.679Z,87.94
